Terminal Aerodrome Forecast
Issued by NWS Twin Cities, MN

Home | Current Version | Previous Version | Graphics & Text | Print | Product List | Glossary On
Versions: 1 2 3 4 5 6 7 8 9 10 11 12 13 14 15 16 17 18
000
FTUS43 KMPX 291207 AAA
TAFSTC
TAF AMD
KSTC 291207Z 2912/3012 00000KT 1SM BR SCT003
     FM291300 17003KT 3SM BR SCT004
     FM291400 18008KT P6SM FEW250=

USA.gov is the U.S. government's official web portal to all federal, state and local government web resources and services.